Terminal Aerodrome Forecast
Issued by NWS

Home | Current Version | Previous Version | Text Only | Print | Product List | Glossary On
Versions: 1 2 3 4 5 6 7 8 9 10 11 12 13 14 15 16
000
FTUS43 KGRR 220251 AAA
TAFJXN
TAF AMD
KJXN 220251Z 2203/2224 28004KT P6SM VCTS BKN050CB BKN100
      TEMPO 2203/2205 4SM -TSRA BR OVC025CB
     FM220800 22011KT 3SM -SHRA BR OVC035
     FM221300 25012G22KT P6SM BKN025
     FM221900 29014G24KT P6SM BKN040=

USA.gov is the U.S. government's official web portal to all federal, state and local government web resources and services.